Flughafen Heringsdorf

Aus VATSIM Germany
Dies ist die bestätigte sowie die neueste Version dieser Seite.
Wechseln zu:Navigation, Suche
UnderCon icon.svg.pngDieser Artikel ist noch im Aufbau. Der Artikel kann daher unvollständig sein oder Fehler enthalten!


Heringsdorf Airport
ICAO / IATA EDAH / HDF
Koordinaten N53°52′43″  E014°9′8″
Höhe 28 m / 93 ft
Wetter EDAH 181650Z 00000KT 5000 OVC025 10/10 Q1022
Pisten
Platzfrequenzen
Nur für Flugsimulationszwecke!



Informationen für Piloten und Lotsen
Pilotenbriefing

Standard Operating Procedures (SOP)

Letters of Agreement (LoAs)

Airport Charts